createdAt,value
2023-02-06T00:00:02.889Z,88.49
2023-02-06T00:01:02.574Z,88.49
2023-02-06T00:02:03.189Z,88.29
2023-02-06T00:03:02.644Z,87.66
2023-02-06T00:04:02.789Z,88.29
2023-02-06T00:05:02.705Z,87.77
2023-02-06T00:06:02.620Z,87.87
2023-02-06T00:07:03.028Z,88.18
2023-02-06T00:08:02.720Z,87.56
2023-02-06T00:09:02.763Z,87.56
2023-02-06T00:10:03.006Z,87.66
2023-02-06T00:11:02.820Z,87.77
2023-02-06T00:12:02.345Z,88.08
2023-02-06T00:13:01.696Z,88.59
2023-02-06T00:14:02.300Z,88.45
2023-02-06T00:15:01.996Z,88.24
2023-02-06T00:16:02.287Z,88.45
2023-02-06T00:17:08.837Z,88.76
2023-02-06T00:18:02.355Z,88.24
2023-02-06T00:19:02.659Z,88.35
2023-02-06T00:20:02.427Z,87.32
2023-02-06T00:21:02.942Z,86.70
2023-02-06T00:22:03.172Z,86.49
2023-02-06T00:23:02.736Z,86.80
2023-02-06T00:24:03.050Z,86.90
2023-02-06T00:25:02.897Z,87.32
2023-02-06T00:26:02.930Z,87.42
2023-02-06T00:27:01.860Z,87.73
2023-02-06T00:28:02.209Z,87.90
2023-02-06T00:29:02.017Z,87.90
2023-02-06T00:30:02.120Z,87.48
2023-02-06T00:31:02.024Z,85.83
2023-02-06T00:32:02.008Z,86.35
2023-02-06T00:33:01.981Z,87.07
2023-02-06T00:34:02.457Z,87.48
2023-02-06T00:35:01.820Z,87.48
2023-02-06T00:36:02.055Z,87.79
2023-02-06T00:37:02.260Z,87.38
2023-02-06T00:38:02.898Z,87.59
2023-02-06T00:39:02.644Z,87.79
2023-02-06T00:40:02.451Z,87.38
2023-02-06T00:41:02.896Z,87.07
2023-02-06T00:42:01.630Z,86.76
2023-02-06T00:43:01.963Z,87.48
2023-02-06T00:44:02.162Z,86.97
2023-02-06T00:45:01.891Z,86.90
2023-02-06T00:46:02.340Z,87.63
2023-02-06T00:47:02.052Z,87.73
2023-02-06T00:48:02.019Z,87.63
2023-02-06T00:49:02.244Z,87.83
2023-02-06T00:50:01.966Z,87.48
2023-02-06T00:51:02.162Z,88.10
2023-02-06T00:52:02.163Z,87.99
2023-02-06T00:53:02.337Z,87.59
2023-02-06T00:54:01.885Z,87.69
2023-02-06T00:55:02.387Z,87.69
2023-02-06T00:56:02.213Z,87.17
2023-02-06T00:57:02.435Z,87.63
2023-02-06T00:58:02.093Z,87.63
2023-02-06T00:59:02.285Z,86.90
2023-02-06T01:00:02.534Z,87.38
2023-02-06T01:01:02.147Z,87.63
2023-02-06T01:02:03.701Z,87.73
2023-02-06T01:03:03.662Z,88.04
2023-02-06T01:04:03.718Z,87.83
2023-02-06T01:05:03.062Z,87.42
2023-02-06T01:06:03.620Z,87.42
2023-02-06T01:07:02.805Z,87.63
2023-02-06T01:08:04.451Z,87.73
2023-02-06T01:09:03.029Z,87.93
2023-02-06T01:10:03.126Z,87.93
2023-02-06T01:11:02.605Z,88.14
2023-02-06T01:12:02.996Z,88.04
2023-02-06T01:13:03.128Z,88.35
2023-02-06T01:14:03.240Z,88.35
2023-02-06T01:15:03.076Z,88.56
2023-02-06T01:16:03.092Z,88.49
2023-02-06T01:17:03.105Z,88.80
2023-02-06T01:18:03.059Z,88.90
2023-02-06T01:19:03.024Z,89.22
2023-02-06T01:20:02.760Z,89.42
2023-02-06T01:21:02.863Z,89.32
2023-02-06T01:22:03.732Z,89.62
2023-02-06T01:23:03.422Z,89.73
2023-02-06T01:24:03.526Z,89.94
2023-02-06T01:25:03.486Z,89.94
2023-02-06T01:26:03.273Z,90.45
2023-02-06T01:27:02.755Z,90.86
2023-02-06T01:28:02.667Z,90.66
2023-02-06T01:29:02.801Z,90.55
2023-02-06T01:30:02.942Z,90.80
2023-02-06T01:31:02.835Z,90.80
2023-02-06T01:32:03.080Z,91.42
2023-02-06T01:33:02.682Z,91.42
2023-02-06T01:34:02.728Z,91.32
2023-02-06T01:35:02.873Z,91.32
2023-02-06T01:36:03.017Z,91.32
2023-02-06T01:37:03.143Z,91.22
2023-02-06T01:38:03.321Z,91.22
2023-02-06T01:39:03.286Z,91.32
2023-02-06T01:40:03.064Z,91.11
2023-02-06T01:41:03.340Z,91.32
2023-02-06T01:42:02.815Z,91.01
2023-02-06T01:43:03.114Z,90.91
2023-02-06T01:44:03.123Z,90.70
2023-02-06T01:45:02.804Z,91.42
2023-02-06T01:46:03.172Z,91.52
2023-02-06T01:47:03.280Z,91.32
2023-02-06T01:48:03.685Z,91.32
2023-02-06T01:49:06.006Z,91.22
2023-02-06T01:50:03.151Z,91.22
2023-02-06T01:51:03.461Z,91.01
2023-02-06T01:52:02.952Z,91.22
2023-02-06T01:53:03.075Z,91.11
2023-02-06T01:54:03.155Z,90.91
2023-02-06T01:55:03.068Z,90.80
2023-02-06T01:56:02.910Z,90.80
2023-02-06T01:57:02.836Z,90.84
2023-02-06T01:58:03.021Z,91.26
2023-02-06T01:59:02.583Z,91.56
2023-02-06T02:00:02.891Z,91.61
2023-02-06T02:01:02.748Z,91.82
2023-02-06T02:02:02.082Z,92.13
2023-02-06T02:03:01.884Z,92.33
2023-02-06T02:04:02.305Z,92.13
2023-02-06T02:05:01.800Z,92.02
2023-02-06T02:06:02.213Z,91.82
2023-02-06T02:07:02.678Z,91.82
2023-02-06T02:08:02.557Z,91.92
2023-02-06T02:09:02.969Z,92.64
2023-02-06T02:10:02.391Z,92.74
2023-02-06T02:11:02.744Z,92.33
2023-02-06T02:12:02.710Z,92.13
2023-02-06T02:13:02.887Z,92.38
2023-02-06T02:14:02.565Z,92.68
2023-02-06T02:15:02.925Z,92.38
2023-02-06T02:16:02.699Z,92.58
2023-02-06T02:17:03.110Z,92.68
2023-02-06T02:18:02.771Z,92.58
2023-02-06T02:19:02.879Z,92.17
2023-02-06T02:20:02.784Z,91.86
2023-02-06T02:21:03.166Z,91.90
2023-02-06T02:22:02.178Z,92.00
2023-02-06T02:23:02.307Z,92.32
2023-02-06T02:24:02.092Z,91.80
2023-02-06T02:25:02.462Z,92.15
2023-02-06T02:26:02.633Z,93.39
2023-02-06T02:27:02.766Z,93.29
2023-02-06T02:28:02.687Z,93.49
2023-02-06T02:29:02.637Z,93.49
2023-02-06T02:30:02.772Z,93.74
2023-02-06T02:31:02.329Z,93.23
2023-02-06T02:32:02.373Z,93.54
2023-02-06T02:33:02.621Z,93.64
2023-02-06T02:34:02.776Z,93.33
2023-02-06T02:35:02.930Z,93.74
2023-02-06T02:36:02.379Z,93.23
2023-02-06T02:37:02.785Z,92.81
2023-02-06T02:38:02.434Z,92.91
2023-02-06T02:39:03.068Z,92.81
2023-02-06T02:40:02.958Z,92.40
2023-02-06T02:41:02.770Z,92.40
2023-02-06T02:42:02.583Z,92.50
2023-02-06T02:43:03.115Z,92.44
2023-02-06T02:44:02.450Z,93.06
2023-02-06T02:45:02.851Z,93.27
2023-02-06T02:46:03.027Z,93.48
2023-02-06T02:47:03.062Z,93.41
2023-02-06T02:48:03.048Z,93.21
2023-02-06T02:49:02.441Z,92.90
2023-02-06T02:50:02.747Z,93.41
2023-02-06T02:51:02.428Z,93.31
2023-02-06T02:52:02.392Z,93.00
2023-02-06T02:53:02.382Z,93.73
2023-02-06T02:54:02.212Z,93.77
2023-02-06T02:55:02.186Z,93.98
2023-02-06T02:56:02.038Z,93.35
2023-02-06T02:57:02.185Z,93.35
2023-02-06T02:58:02.576Z,93.35
2023-02-06T02:59:02.495Z,93.35
2023-02-06T03:00:02.435Z,93.25
2023-02-06T03:01:02.431Z,93.91
2023-02-06T03:02:02.987Z,94.64
2023-02-06T03:03:02.821Z,95.20
2023-02-06T03:04:02.322Z,95.51
2023-02-06T03:05:02.839Z,96.03
2023-02-06T03:06:02.339Z,96.03
2023-02-06T03:07:02.184Z,96.45
2023-02-06T03:08:01.905Z,96.66
2023-02-06T03:09:01.945Z,96.70
2023-02-06T03:10:01.709Z,97.12
2023-02-06T03:11:02.030Z,96.97
2023-02-06T03:12:02.433Z,96.55
2023-02-06T03:13:02.559Z,96.60
2023-02-06T03:14:02.178Z,97.12
2023-02-06T03:15:02.318Z,97.12
2023-02-06T03:16:02.303Z,97.33
2023-02-06T03:17:02.689Z,97.12
2023-02-06T03:18:02.261Z,97.02
2023-02-06T03:19:02.313Z,97.02
2023-02-06T03:20:02.564Z,96.70
2023-02-06T03:21:02.274Z,96.29
2023-02-06T03:22:01.926Z,96.39
2023-02-06T03:23:01.595Z,96.50
2023-02-06T03:24:02.040Z,96.19
2023-02-06T03:25:01.834Z,95.98
2023-02-06T03:26:01.508Z,95.56
2023-02-06T03:27:02.006Z,95.25
2023-02-06T03:28:01.590Z,95.36
2023-02-06T03:29:01.735Z,95.25
2023-02-06T03:30:02.094Z,95.04
2023-02-06T03:31:01.940Z,95.56
2023-02-06T03:32:01.737Z,96.08
2023-02-06T03:33:02.038Z,96.19
2023-02-06T03:34:01.814Z,95.56
2023-02-06T03:35:02.172Z,95.46
2023-02-06T03:36:01.787Z,95.15
2023-02-06T03:37:01.383Z,95.46
2023-02-06T03:38:01.304Z,94.63
2023-02-06T03:39:01.417Z,94.63
2023-02-06T03:40:01.735Z,94.78
2023-02-06T03:41:01.777Z,94.98
2023-02-06T03:42:02.110Z,94.88
2023-02-06T03:43:02.323Z,94.78
2023-02-06T03:44:01.909Z,95.19
2023-02-06T03:45:02.433Z,95.29
2023-02-06T03:46:02.119Z,95.40
2023-02-06T03:47:02.304Z,95.19
2023-02-06T03:48:02.238Z,95.75
2023-02-06T03:49:02.233Z,95.96
2023-02-06T03:50:01.974Z,96.58
2023-02-06T03:51:02.106Z,96.58
2023-02-06T03:52:02.430Z,96.37
2023-02-06T03:53:02.153Z,96.17
2023-02-06T03:54:02.308Z,96.37
2023-02-06T03:55:02.263Z,96.17
2023-02-06T03:56:02.189Z,95.86
2023-02-06T03:57:01.384Z,95.65
2023-02-06T03:58:01.374Z,95.75
2023-02-06T03:59:01.826Z,96.11
2023-02-06T04:00:01.322Z,96.21
2023-02-06T04:01:01.451Z,96.42
2023-02-06T04:02:03.011Z,96.73
2023-02-06T04:03:02.507Z,96.83
2023-02-06T04:04:02.579Z,96.73
2023-02-06T04:05:02.384Z,97.14
2023-02-06T04:06:02.324Z,97.40
2023-02-06T04:07:03.124Z,97.61
2023-02-06T04:08:02.948Z,97.56
2023-02-06T04:09:03.511Z,97.35
2023-02-06T04:10:03.123Z,97.30
2023-02-06T04:11:03.117Z,97.71
2023-02-06T04:12:03.371Z,97.92
2023-02-06T04:13:02.932Z,97.92
2023-02-06T04:14:03.041Z,97.92
2023-02-06T04:15:02.999Z,97.92
2023-02-06T04:16:03.055Z,97.81
2023-02-06T04:17:02.983Z,98.02
2023-02-06T04:18:04.507Z,98.02
2023-02-06T04:19:02.636Z,98.02
2023-02-06T04:20:03.097Z,98.02
2023-02-06T04:21:02.533Z,98.33
2023-02-06T04:22:02.621Z,98.23
2023-02-06T04:23:02.378Z,98.02
2023-02-06T04:24:02.366Z,97.81
2023-02-06T04:25:02.402Z,97.92
2023-02-06T04:26:02.375Z,97.71
2023-02-06T04:27:02.767Z,97.45
2023-02-06T04:28:02.891Z,97.35
2023-02-06T04:29:02.824Z,97.25
2023-02-06T04:31:02.727Z,97.56
2023-02-06T04:32:03.038Z,97.14
2023-02-06T04:33:03.088Z,97.35
2023-02-06T04:34:02.887Z,97.04
2023-02-06T04:35:02.483Z,96.21
2023-02-06T04:36:02.485Z,96.00
2023-02-06T04:37:03.405Z,95.79
2023-02-06T04:38:02.982Z,95.48
2023-02-06T04:39:03.300Z,95.42
2023-02-06T04:40:03.319Z,95.32
2023-02-06T04:41:03.408Z,94.90
2023-02-06T04:42:03.165Z,94.90
2023-02-06T04:43:03.310Z,95.21
2023-02-06T04:44:03.210Z,95.01
2023-02-06T04:45:03.022Z,94.90
2023-02-06T04:46:03.277Z,95.21
2023-02-06T04:47:02.680Z,94.70
2023-02-06T04:48:02.256Z,94.49
2023-02-06T04:49:02.756Z,94.49
2023-02-06T04:50:02.172Z,94.43
2023-02-06T04:51:02.558Z,94.32
2023-02-06T04:52:02.447Z,94.12
2023-02-06T04:53:02.842Z,94.84
2023-02-06T04:54:02.888Z,94.74
2023-02-06T04:55:02.690Z,94.01
2023-02-06T04:56:02.690Z,94.12
2023-02-06T04:57:02.957Z,94.12
2023-02-06T04:58:02.414Z,94.89
2023-02-06T04:59:02.952Z,95.40
2023-02-06T05:00:02.368Z,94.57
2023-02-06T05:01:02.847Z,94.16
2023-02-06T05:02:02.789Z,94.26
2023-02-06T05:03:02.589Z,94.26
2023-02-06T05:04:02.518Z,94.26
2023-02-06T05:05:03.030Z,94.16
2023-02-06T05:06:02.901Z,93.95
2023-02-06T05:07:05.454Z,94.26
2023-02-06T05:08:02.616Z,94.47
2023-02-06T05:09:02.454Z,94.62
2023-02-06T05:10:02.941Z,94.62
2023-02-06T05:11:02.523Z,94.51
2023-02-06T05:12:03.018Z,94.41
2023-02-06T05:13:02.855Z,94.72
2023-02-06T05:14:02.710Z,95.14
2023-02-06T05:15:03.036Z,95.03
2023-02-06T05:16:03.079Z,94.72
2023-02-06T05:17:02.268Z,94.82
2023-02-06T05:18:02.118Z,94.76
2023-02-06T05:19:02.080Z,94.56
2023-02-06T05:20:02.482Z,94.66
2023-02-06T05:21:02.235Z,94.45
2023-02-06T05:22:03.066Z,94.56
2023-02-06T05:23:02.639Z,95.29
2023-02-06T05:24:02.612Z,94.87
2023-02-06T05:25:02.613Z,94.56
2023-02-06T05:26:03.111Z,95.18
2023-02-06T05:27:02.284Z,95.50
2023-02-06T05:28:02.946Z,95.08
2023-02-06T05:29:02.337Z,94.35
2023-02-06T05:30:02.461Z,93.83
2023-02-06T05:31:02.990Z,93.62
2023-02-06T05:32:02.438Z,93.46
2023-02-06T05:33:02.853Z,93.46
2023-02-06T05:34:02.737Z,93.35
2023-02-06T05:35:02.901Z,93.35
2023-02-06T05:36:02.366Z,93.66
2023-02-06T05:37:02.988Z,93.87
2023-02-06T05:38:02.740Z,94.33
2023-02-06T05:39:02.932Z,94.75
2023-02-06T05:40:03.230Z,95.06
2023-02-06T05:41:02.905Z,95.37
2023-02-06T05:42:02.190Z,95.68
2023-02-06T05:43:02.316Z,95.79
2023-02-06T05:44:02.408Z,95.58
2023-02-06T05:45:02.169Z,95.58
2023-02-06T05:46:02.432Z,95.58
2023-02-06T05:47:02.790Z,96.15
2023-02-06T05:48:02.917Z,96.56
2023-02-06T05:49:02.593Z,96.56
2023-02-06T05:50:02.736Z,96.56
2023-02-06T05:51:02.785Z,96.46
2023-02-06T05:52:03.076Z,96.04
2023-02-06T05:53:02.905Z,95.94
2023-02-06T05:54:02.829Z,96.36
2023-02-06T05:55:02.799Z,96.15
2023-02-06T05:56:02.967Z,96.88
2023-02-06T05:57:01.886Z,97.30
2023-02-06T05:58:02.217Z,96.56
2023-02-06T05:59:01.873Z,95.94
2023-02-06T06:00:02.255Z,95.52
2023-02-06T06:01:02.305Z,96.25
2023-02-06T06:02:02.787Z,96.36
2023-02-06T06:03:02.418Z,96.15
2023-02-06T06:04:02.719Z,95.62
2023-02-06T06:05:02.649Z,95.42
2023-02-06T06:06:02.428Z,95.31
2023-02-06T06:07:02.547Z,95.10
2023-02-06T06:08:02.316Z,95.21
2023-02-06T06:09:02.454Z,95.52
2023-02-06T06:10:02.137Z,95.94
2023-02-06T06:11:02.244Z,95.31
2023-02-06T06:12:02.697Z,95.42
2023-02-06T06:13:02.408Z,95.17
2023-02-06T06:14:02.379Z,94.79
2023-02-06T06:15:02.390Z,94.85
2023-02-06T06:16:02.534Z,95.17
2023-02-06T06:17:02.209Z,95.48
2023-02-06T06:18:02.000Z,95.58
2023-02-06T06:19:02.124Z,95.89
2023-02-06T06:20:01.739Z,96.62
2023-02-06T06:21:01.894Z,96.94
2023-02-06T06:22:02.155Z,97.71
2023-02-06T06:23:02.630Z,98.23
2023-02-06T06:24:02.490Z,98.02
2023-02-06T06:25:02.078Z,97.88
2023-02-06T06:26:02.596Z,97.56
2023-02-06T06:27:02.009Z,97.25
2023-02-06T06:28:01.802Z,97.04
2023-02-06T06:29:01.893Z,96.94
2023-02-06T06:30:02.256Z,96.73
2023-02-06T06:31:02.252Z,96.48
2023-02-06T06:32:02.419Z,96.37
2023-02-06T06:33:02.596Z,96.26
2023-02-06T06:34:02.776Z,96.48
2023-02-06T06:35:02.197Z,97.10
2023-02-06T06:36:02.540Z,97.20
2023-02-06T06:37:02.090Z,96.89
2023-02-06T06:38:01.579Z,96.79
2023-02-06T06:39:01.860Z,96.58
2023-02-06T06:40:01.727Z,96.48
2023-02-06T06:41:01.690Z,96.69
2023-02-06T06:42:02.108Z,96.79
2023-02-06T06:43:02.255Z,97.00
2023-02-06T06:44:01.944Z,97.72
2023-02-06T06:45:01.748Z,98.04
2023-02-06T06:46:01.892Z,98.66
2023-02-06T06:47:01.929Z,98.97
2023-02-06T06:48:02.258Z,99.60
2023-02-06T06:49:01.951Z,99.99
2023-02-06T06:50:02.477Z,99.81
2023-02-06T06:51:02.311Z,99.91
2023-02-06T06:52:02.621Z,99.66
2023-02-06T06:53:02.645Z,99.99
2023-02-06T06:54:02.276Z,99.66
2023-02-06T06:55:02.168Z,99.45
2023-02-06T06:56:02.270Z,99.99
2023-02-06T06:57:02.726Z,99.99
2023-02-06T06:58:02.437Z,99.99
2023-02-06T06:59:02.414Z,99.99
2023-02-06T07:00:02.226Z,99.99
2023-02-06T07:01:02.370Z,99.99
2023-02-06T07:02:02.480Z,99.99
2023-02-06T07:03:03.120Z,99.99
2023-02-06T07:04:02.302Z,99.99
2023-02-06T07:05:02.417Z,99.99
2023-02-06T07:06:02.582Z,99.99
2023-02-06T07:07:03.235Z,99.99
2023-02-06T07:08:03.339Z,99.99
2023-02-06T07:09:03.473Z,99.99
2023-02-06T07:10:03.153Z,99.99
2023-02-06T07:11:03.065Z,99.99
2023-02-06T07:12:02.015Z,99.99
2023-02-06T07:13:02.066Z,99.99
2023-02-06T07:14:02.081Z,99.99
2023-02-06T07:15:02.327Z,99.99
2023-02-06T07:16:02.352Z,99.99
2023-02-06T07:17:02.820Z,99.99
2023-02-06T07:18:03.009Z,99.57
2023-02-06T07:19:02.811Z,99.26
2023-02-06T07:20:02.940Z,99.15
2023-02-06T07:21:02.746Z,99.46
2023-02-06T07:22:02.043Z,99.77
2023-02-06T07:23:02.471Z,99.67
2023-02-06T07:24:02.008Z,99.05
2023-02-06T07:25:02.113Z,98.74
2023-02-06T07:26:02.172Z,99.15
2023-02-06T07:27:02.442Z,98.90
2023-02-06T07:28:02.645Z,98.38
2023-02-06T07:29:02.252Z,98.38
2023-02-06T07:30:02.183Z,98.69
2023-02-06T07:31:02.022Z,99.21
2023-02-06T07:32:02.644Z,99.42
2023-02-06T07:33:02.857Z,98.90
2023-02-06T07:34:03.050Z,98.80
2023-02-06T07:35:02.722Z,98.48
2023-02-06T07:36:04.117Z,97.96
2023-02-06T07:37:02.574Z,97.81
2023-02-06T07:38:03.014Z,97.96
2023-02-06T07:39:02.650Z,98.27
2023-02-06T07:40:02.732Z,98.02
2023-02-06T07:41:02.633Z,98.80
2023-02-06T07:42:02.126Z,99.11
2023-02-06T07:43:02.018Z,99.21
2023-02-06T07:44:02.084Z,99.16
2023-02-06T07:45:01.861Z,99.06
2023-02-06T07:46:02.562Z,98.96
2023-02-06T07:47:02.654Z,98.54
2023-02-06T07:48:02.412Z,98.23
2023-02-06T07:49:02.508Z,98.02
2023-02-06T07:50:02.486Z,97.92
2023-02-06T07:51:02.095Z,97.88
2023-02-06T07:52:02.489Z,97.67
2023-02-06T07:53:02.411Z,97.56
2023-02-06T07:54:02.963Z,97.35
2023-02-06T07:55:02.721Z,97.14
2023-02-06T07:56:02.939Z,97.14
2023-02-06T07:57:01.950Z,97.14
2023-02-06T07:58:02.014Z,97.45
2023-02-06T07:59:01.988Z,97.14
2023-02-06T08:00:02.343Z,97.45
2023-02-06T08:01:02.453Z,97.56
2023-02-06T08:02:02.750Z,97.67
2023-02-06T08:03:02.302Z,97.35
2023-02-06T08:04:02.486Z,97.41
2023-02-06T08:05:02.417Z,97.52
2023-02-06T08:06:02.563Z,97.20
2023-02-06T08:07:03.245Z,97.31
2023-02-06T08:08:03.234Z,97.31
2023-02-06T08:09:03.187Z,97.62
2023-02-06T08:10:03.240Z,97.83
2023-02-06T08:11:02.956Z,97.93
2023-02-06T08:12:02.993Z,97.16
2023-02-06T08:13:03.308Z,96.75
2023-02-06T08:14:03.403Z,96.85
2023-02-06T08:15:03.561Z,96.85
2023-02-06T08:16:03.566Z,96.85
2023-02-06T08:17:02.571Z,96.64
2023-02-06T08:18:02.765Z,96.85
2023-02-06T08:19:02.841Z,97.06
2023-02-06T08:20:03.055Z,97.16
2023-02-06T08:21:02.823Z,97.16
2023-02-06T08:22:03.326Z,97.06
2023-02-06T08:23:03.272Z,97.02
2023-02-06T08:24:03.369Z,97.02
2023-02-06T08:25:03.321Z,97.22
2023-02-06T08:26:03.362Z,97.12
2023-02-06T08:27:02.462Z,97.12
2023-02-06T08:28:02.833Z,97.22
2023-02-06T08:29:02.626Z,97.33
2023-02-06T08:30:02.231Z,97.22
2023-02-06T08:31:02.801Z,97.07
2023-02-06T08:32:02.724Z,97.28
2023-02-06T08:33:02.914Z,97.28
2023-02-06T08:34:02.392Z,97.38
2023-02-06T08:35:02.973Z,97.49
2023-02-06T08:36:02.637Z,97.69
2023-02-06T08:37:03.043Z,97.80
2023-02-06T08:38:02.727Z,97.80
2023-02-06T08:39:03.017Z,97.38
2023-02-06T08:40:02.608Z,97.49
2023-02-06T08:41:02.734Z,97.59
2023-02-06T08:42:02.903Z,97.59
2023-02-06T08:43:03.313Z,98.00
2023-02-06T08:44:03.310Z,98.00
2023-02-06T08:45:03.155Z,97.96
2023-02-06T08:46:02.812Z,97.86
2023-02-06T08:47:10.020Z,98.00
2023-02-06T08:48:02.194Z,98.42
2023-02-06T08:49:02.337Z,98.73
2023-02-06T08:50:03.710Z,98.79
2023-02-06T08:51:02.677Z,98.69
2023-02-06T08:52:03.123Z,98.69
2023-02-06T08:53:02.946Z,98.79
2023-02-06T08:54:03.332Z,99.10
2023-02-06T08:55:03.043Z,98.69
2023-02-06T08:56:03.156Z,98.58
2023-02-06T08:57:02.037Z,99.04
2023-02-06T08:58:01.941Z,99.62
2023-02-06T08:59:01.963Z,99.52
2023-02-06T09:00:02.446Z,98.90
2023-02-06T09:01:02.424Z,98.74
2023-02-06T09:02:02.757Z,98.74
2023-02-06T09:03:02.905Z,98.33
2023-02-06T09:04:03.103Z,98.54
2023-02-06T09:05:02.457Z,98.43
2023-02-06T09:06:09.874Z,98.64
2023-02-06T09:07:03.459Z,98.39
2023-02-06T09:08:03.204Z,97.87
2023-02-06T09:09:03.422Z,97.87
2023-02-06T09:10:03.224Z,98.08
2023-02-06T09:11:02.792Z,98.28
2023-02-06T09:12:03.126Z,98.28
2023-02-06T09:13:03.135Z,98.60
2023-02-06T09:14:03.252Z,98.80
2023-02-06T09:15:03.224Z,98.08
2023-02-06T09:16:03.027Z,97.25
2023-02-06T09:17:03.571Z,97.45
2023-02-06T09:18:03.338Z,97.25
2023-02-06T09:19:03.600Z,97.31
2023-02-06T09:20:03.471Z,97.41
2023-02-06T09:21:03.258Z,97.31
2023-02-06T09:22:02.821Z,97.41
2023-02-06T09:23:02.617Z,97.62
2023-02-06T09:24:02.546Z,97.83
2023-02-06T09:25:02.947Z,97.36
2023-02-06T09:26:02.891Z,97.36
2023-02-06T09:27:02.558Z,97.26
2023-02-06T09:28:02.927Z,96.75
2023-02-06T09:29:03.288Z,96.54
2023-02-06T09:30:03.055Z,96.85
2023-02-06T09:31:02.909Z,96.75
2023-02-06T09:32:03.002Z,96.54
2023-02-06T09:33:03.205Z,96.02
2023-02-06T09:34:03.059Z,96.12
2023-02-06T09:35:03.266Z,96.44
2023-02-06T09:36:03.395Z,96.44
2023-02-06T09:37:02.905Z,96.12
2023-02-06T09:38:02.453Z,96.23
2023-02-06T09:39:02.886Z,95.96
2023-02-06T09:40:02.376Z,96.37
2023-02-06T09:41:02.544Z,96.75
2023-02-06T09:42:03.277Z,96.54
2023-02-06T09:43:02.701Z,96.02
2023-02-06T09:44:03.198Z,96.33
2023-02-06T09:45:02.818Z,96.54
2023-02-06T09:46:03.043Z,96.23
2023-02-06T09:47:02.809Z,95.71
2023-02-06T09:48:02.196Z,95.81
2023-02-06T09:49:02.722Z,95.81
2023-02-06T09:50:02.685Z,95.92
2023-02-06T09:51:02.773Z,95.50
2023-02-06T09:52:02.780Z,95.65
2023-02-06T09:53:02.761Z,95.86
2023-02-06T09:54:02.600Z,95.96
2023-02-06T09:55:02.382Z,96.17
2023-02-06T09:56:02.269Z,96.27
2023-02-06T09:57:03.468Z,96.48
2023-02-06T09:58:03.461Z,96.33
2023-02-06T09:59:03.514Z,96.23
2023-02-06T10:00:02.920Z,95.92
2023-02-06T10:01:03.172Z,95.92
2023-02-06T10:02:03.031Z,95.29
2023-02-06T10:03:02.520Z,95.04
2023-02-06T10:04:02.661Z,94.43
2023-02-06T10:05:02.401Z,94.01
2023-02-06T10:06:02.516Z,93.39
2023-02-06T10:07:02.539Z,93.08
2023-02-06T10:08:03.138Z,92.97
2023-02-06T10:09:02.830Z,92.21
2023-02-06T10:10:02.550Z,91.94
2023-02-06T10:11:02.803Z,91.74
2023-02-06T10:12:01.758Z,91.90
2023-02-06T10:13:01.947Z,91.90
2023-02-06T10:14:01.836Z,91.38
2023-02-06T10:15:02.107Z,90.60
2023-02-06T10:16:01.859Z,91.22
2023-02-06T10:17:02.228Z,90.70
2023-02-06T10:18:02.151Z,91.01
2023-02-06T10:19:02.329Z,91.53
2023-02-06T10:20:02.064Z,92.05
2023-02-06T10:21:02.356Z,92.42
2023-02-06T10:22:03.174Z,92.11
2023-02-06T10:23:02.682Z,91.80
2023-02-06T10:24:02.526Z,90.80
2023-02-06T10:25:03.106Z,91.22
2023-02-06T10:26:02.529Z,91.32
2023-02-06T10:27:02.943Z,91.53
2023-02-06T10:28:02.832Z,92.11
2023-02-06T10:29:02.787Z,91.59
2023-02-06T10:30:02.981Z,90.87
2023-02-06T10:31:02.677Z,91.49
2023-02-06T10:32:02.381Z,91.59
2023-02-06T10:33:02.126Z,91.49
2023-02-06T10:34:02.417Z,91.59
2023-02-06T10:35:02.277Z,91.80
2023-02-06T10:36:02.059Z,91.17
2023-02-06T10:37:01.814Z,91.07
2023-02-06T10:38:01.772Z,90.66
2023-02-06T10:39:02.234Z,90.45
2023-02-06T10:40:01.881Z,90.25
2023-02-06T10:41:01.856Z,90.35
2023-02-06T10:42:02.606Z,90.25
2023-02-06T10:43:02.269Z,90.14
2023-02-06T10:44:02.369Z,90.45
2023-02-06T10:45:17.485Z,90.35
2023-02-06T10:46:02.430Z,89.83
2023-02-06T10:47:01.977Z,89.52
2023-02-06T10:48:02.236Z,89.83
2023-02-06T10:49:01.813Z,90.04
2023-02-06T10:50:02.000Z,89.94
2023-02-06T10:51:02.049Z,89.48
2023-02-06T10:52:02.054Z,89.07
2023-02-06T10:53:02.475Z,89.48
2023-02-06T10:54:02.154Z,90.10
2023-02-06T10:55:02.084Z,90.89
2023-02-06T10:56:02.009Z,90.68
2023-02-06T10:57:03.036Z,90.43
2023-02-06T10:58:02.874Z,90.64
2023-02-06T10:59:02.808Z,89.50
2023-02-06T11:00:02.768Z,88.12
2023-02-06T11:01:04.143Z,88.95
2023-02-06T11:02:02.037Z,88.22
2023-02-06T11:03:07.579Z,87.92
2023-02-06T11:04:02.267Z,88.43
2023-02-06T11:05:02.172Z,88.74
2023-02-06T11:06:02.077Z,88.84
2023-02-06T11:07:02.141Z,87.81
2023-02-06T11:08:02.247Z,88.02
2023-02-06T11:09:02.232Z,88.29
2023-02-06T11:10:02.122Z,88.70
2023-02-06T11:11:02.220Z,88.08
2023-02-06T11:12:02.479Z,88.08
2023-02-06T11:13:02.790Z,87.93
2023-02-06T11:14:02.715Z,86.49
2023-02-06T11:15:02.481Z,86.49
2023-02-06T11:16:03.117Z,86.39
2023-02-06T11:17:02.249Z,86.53
2023-02-06T11:18:02.129Z,86.18
2023-02-06T11:19:02.124Z,86.70
2023-02-06T11:20:02.088Z,87.27
2023-02-06T11:21:01.855Z,87.69
2023-02-06T11:22:02.495Z,84.97
2023-02-06T11:23:02.590Z,85.49
2023-02-06T11:24:02.288Z,85.17
2023-02-06T11:25:02.313Z,85.14
2023-02-06T11:26:02.188Z,85.34
2023-02-06T11:27:01.795Z,84.00
2023-02-06T11:28:01.788Z,83.76
2023-02-06T11:29:01.736Z,83.45
2023-02-06T11:30:02.314Z,82.21
2023-02-06T11:31:02.056Z,83.35
2023-02-06T11:32:02.165Z,83.65
2023-02-06T11:33:04.898Z,84.03
2023-02-06T11:34:02.353Z,84.64
2023-02-06T11:35:02.139Z,83.48
2023-02-06T11:36:02.109Z,82.04
2023-02-06T11:37:02.546Z,81.01
2023-02-06T11:38:05.109Z,81.11
2023-02-06T11:39:02.577Z,81.11
2023-02-06T11:40:02.488Z,82.45
2023-02-06T11:41:02.354Z,81.01
2023-02-06T11:42:02.216Z,81.32
2023-02-06T11:43:01.983Z,81.79
2023-02-06T11:44:02.445Z,80.87
2023-02-06T11:45:01.912Z,81.28
2023-02-06T11:46:02.585Z,81.38
2023-02-06T11:47:02.329Z,80.97
2023-02-06T11:48:02.501Z,81.79
2023-02-06T11:49:02.577Z,80.21
2023-02-06T11:50:02.511Z,78.88
2023-02-06T11:51:02.534Z,79.60
2023-02-06T11:52:01.964Z,80.32
2023-02-06T11:53:01.690Z,79.08
2023-02-06T11:54:02.049Z,78.33
2023-02-06T11:55:01.986Z,78.85
2023-02-06T11:56:01.732Z,77.30
2023-02-06T11:57:02.162Z,78.64
2023-02-06T11:58:01.899Z,77.71
2023-02-06T11:59:02.355Z,79.11
2023-02-06T12:00:02.170Z,76.75
2023-02-06T12:01:02.481Z,76.34
2023-02-06T12:02:02.671Z,76.34
2023-02-06T12:03:02.317Z,76.24
2023-02-06T12:04:02.352Z,77.54
2023-02-06T12:05:02.166Z,76.92
2023-02-06T12:06:03.223Z,76.10
2023-02-06T12:07:02.574Z,75.69
2023-02-06T12:08:02.762Z,76.89
2023-02-06T12:09:02.139Z,77.91
2023-02-06T12:10:02.483Z,75.31
2023-02-06T12:11:02.624Z,75.52
2023-02-06T12:12:03.224Z,74.80
2023-02-06T12:13:03.244Z,75.42
2023-02-06T12:14:03.101Z,76.14
2023-02-06T12:15:18.175Z,76.31
2023-02-06T12:16:02.916Z,76.31
2023-02-06T12:17:03.149Z,76.06
2023-02-06T12:18:03.563Z,75.24
2023-02-06T12:19:03.285Z,74.53
2023-02-06T12:20:02.855Z,74.29
2023-02-06T12:21:03.043Z,73.47
2023-02-06T12:22:02.500Z,73.98
2023-02-06T12:23:02.838Z,74.19
2023-02-06T12:24:02.590Z,72.86
2023-02-06T12:25:02.636Z,73.78
2023-02-06T12:26:02.739Z,72.55
2023-02-06T12:27:02.397Z,71.36
2023-02-06T12:28:02.479Z,73.50
2023-02-06T12:29:02.124Z,73.61
2023-02-06T12:30:02.426Z,72.82
2023-02-06T12:31:02.186Z,73.03
2023-02-06T12:32:02.925Z,72.72
2023-02-06T12:33:02.456Z,73.33
2023-02-06T12:34:02.525Z,74.36
2023-02-06T12:35:02.890Z,74.56
2023-02-06T12:36:02.259Z,73.44
2023-02-06T12:37:03.059Z,74.56
2023-02-06T12:38:02.702Z,73.74
2023-02-06T12:39:02.852Z,73.95
2023-02-06T12:40:02.826Z,73.95
2023-02-06T12:41:02.860Z,74.26
2023-02-06T12:42:03.064Z,73.30
2023-02-06T12:43:02.967Z,73.81
2023-02-06T12:44:02.950Z,73.20
2023-02-06T12:45:02.740Z,72.38
2023-02-06T12:46:02.614Z,72.20
2023-02-06T12:47:03.230Z,73.03
2023-02-06T12:48:02.945Z,72.20
2023-02-06T12:49:03.204Z,72.20
2023-02-06T12:50:03.244Z,73.54
2023-02-06T12:51:03.045Z,72.00
2023-02-06T12:52:02.605Z,73.23
2023-02-06T12:53:01.988Z,71.18